sensor_id;sensor_type;location;lat;lon;timestamp;P1;durP1;ratioP1;P2;durP2;ratioP2
8636;SDS011;4356;49.068;8.658;2022-11-18T00:01:20;2.07;;;1.90;;
8636;SDS011;4356;49.068;8.658;2022-11-18T00:03:47;1.97;;;1.87;;
8636;SDS011;4356;49.068;8.658;2022-11-18T00:06:18;2.87;;;1.80;;
8636;SDS011;4356;49.068;8.658;2022-11-18T00:08:47;1.80;;;1.70;;
8636;SDS011;4356;49.068;8.658;2022-11-18T00:11:13;1.80;;;1.70;;
8636;SDS011;4356;49.068;8.658;2022-11-18T00:13:59;2.13;;;1.90;;
8636;SDS011;4356;49.068;8.658;2022-11-18T00:19:20;1.63;;;1.53;;
8636;SDS011;4356;49.068;8.658;2022-11-18T00:21:48;1.87;;;1.77;;
8636;SDS011;4356;49.068;8.658;2022-11-18T00:24:14;3.03;;;2.30;;
8636;SDS011;4356;49.068;8.658;2022-11-18T00:26:39;2.17;;;1.97;;
8636;SDS011;4356;49.068;8.658;2022-11-18T00:29:07;2.07;;;1.87;;
8636;SDS011;4356;49.068;8.658;2022-11-18T00:31:36;2.40;;;2.20;;
8636;SDS011;4356;49.068;8.658;2022-11-18T00:34:02;7.00;;;1.70;;
8636;SDS011;4356;49.068;8.658;2022-11-18T00:36:28;2.27;;;2.10;;
8636;SDS011;4356;49.068;8.658;2022-11-18T00:38:54;2.37;;;2.03;;
8636;SDS011;4356;49.068;8.658;2022-11-18T00:41:19;2.10;;;1.87;;
8636;SDS011;4356;49.068;8.658;2022-11-18T00:43:45;1.57;;;1.47;;
8636;SDS011;4356;49.068;8.658;2022-11-18T00:46:11;1.93;;;1.70;;
8636;SDS011;4356;49.068;8.658;2022-11-18T00:48:38;2.40;;;1.83;;
8636;SDS011;4356;49.068;8.658;2022-11-18T00:51:12;1.90;;;1.80;;
8636;SDS011;4356;49.068;8.658;2022-11-18T00:53:40;2.07;;;1.97;;
8636;SDS011;4356;49.068;8.658;2022-11-18T00:56:06;2.40;;;2.20;;
8636;SDS011;4356;49.068;8.658;2022-11-18T00:58:32;1.97;;;1.87;;
8636;SDS011;4356;49.068;8.658;2022-11-18T01:00:58;2.07;;;1.80;;
8636;SDS011;4356;49.068;8.658;2022-11-18T01:03:24;1.63;;;1.53;;
8636;SDS011;4356;49.068;8.658;2022-11-18T01:05:52;2.00;;;1.80;;
8636;SDS011;4356;49.068;8.658;2022-11-18T01:08:18;2.30;;;2.10;;
8636;SDS011;4356;49.068;8.658;2022-11-18T01:10:44;2.00;;;1.90;;
8636;SDS011;4356;49.068;8.658;2022-11-18T01:13:12;1.80;;;1.70;;
8636;SDS011;4356;49.068;8.658;2022-11-18T01:18:19;2.03;;;1.50;;
8636;SDS011;4356;49.068;8.658;2022-11-18T01:20:46;2.60;;;1.90;;
8636;SDS011;4356;49.068;8.658;2022-11-18T01:23:13;1.40;;;1.30;;
8636;SDS011;4356;49.068;8.658;2022-11-18T01:25:40;3.53;;;1.70;;
8636;SDS011;4356;49.068;8.658;2022-11-18T01:28:07;3.43;;;1.80;;
8636;SDS011;4356;49.068;8.658;2022-11-18T01:30:33;2.30;;;1.60;;
8636;SDS011;4356;49.068;8.658;2022-11-18T01:33:00;1.60;;;1.50;;
8636;SDS011;4356;49.068;8.658;2022-11-18T01:35:26;2.00;;;1.90;;
8636;SDS011;4356;49.068;8.658;2022-11-18T01:37:51;1.50;;;1.40;;
8636;SDS011;4356;49.068;8.658;2022-11-18T01:40:17;1.60;;;1.50;;
8636;SDS011;4356;49.068;8.658;2022-11-18T01:42:43;2.50;;;1.50;;
8636;SDS011;4356;49.068;8.658;2022-11-18T01:47:51;3.27;;;1.63;;
8636;SDS011;4356;49.068;8.658;2022-11-18T01:50:23;1.50;;;1.30;;
8636;SDS011;4356;49.068;8.658;2022-11-18T01:52:50;1.20;;;0.93;;
8636;SDS011;4356;49.068;8.658;2022-11-18T01:55:23;1.50;;;1.27;;
8636;SDS011;4356;49.068;8.658;2022-11-18T01:57:57;1.57;;;1.47;;
8636;SDS011;4356;49.068;8.658;2022-11-18T02:00:30;3.30;;;1.13;;
8636;SDS011;4356;49.068;8.658;2022-11-18T02:02:55;0.80;;;0.80;;
8636;SDS011;4356;49.068;8.658;2022-11-18T02:05:23;0.90;;;0.83;;
8636;SDS011;4356;49.068;8.658;2022-11-18T02:07:50;0.83;;;0.53;;
8636;SDS011;4356;49.068;8.658;2022-11-18T02:10:18;2.67;;;1.17;;
8636;SDS011;4356;49.068;8.658;2022-11-18T02:12:46;0.80;;;0.80;;
8636;SDS011;4356;49.068;8.658;2022-11-18T02:15:14;0.90;;;0.90;;
8636;SDS011;4356;49.068;8.658;2022-11-18T02:31:07;0.90;;;0.90;;
8636;SDS011;4356;49.068;8.658;2022-11-18T02:33:53;2.03;;;1.10;;
8636;SDS011;4356;49.068;8.658;2022-11-18T02:39:11;1.80;;;0.93;;
8636;SDS011;4356;49.068;8.658;2022-11-18T02:41:44;2.93;;;0.77;;
8636;SDS011;4356;49.068;8.658;2022-11-18T02:44:16;0.60;;;0.60;;
8636;SDS011;4356;49.068;8.658;2022-11-18T02:46:45;0.50;;;0.50;;
8636;SDS011;4356;49.068;8.658;2022-11-18T02:49:22;0.73;;;0.67;;
8636;SDS011;4356;49.068;8.658;2022-11-18T02:51:52;1.40;;;0.60;;
8636;SDS011;4356;49.068;8.658;2022-11-18T02:54:20;0.40;;;0.40;;
8636;SDS011;4356;49.068;8.658;2022-11-18T02:56:47;1.20;;;0.80;;
8636;SDS011;4356;49.068;8.658;2022-11-18T02:59:17;1.03;;;0.70;;
8636;SDS011;4356;49.068;8.658;2022-11-18T03:01:43;1.23;;;1.03;;
8636;SDS011;4356;49.068;8.658;2022-11-18T03:04:08;1.47;;;0.83;;
8636;SDS011;4356;49.068;8.658;2022-11-18T03:06:36;0.60;;;0.60;;
8636;SDS011;4356;49.068;8.658;2022-11-18T03:12:13;0.97;;;0.83;;
8636;SDS011;4356;49.068;8.658;2022-11-18T03:20:15;1.67;;;0.77;;
8636;SDS011;4356;49.068;8.658;2022-11-18T03:22:51;0.70;;;0.70;;
8636;SDS011;4356;49.068;8.658;2022-11-18T03:26:08;0.87;;;0.70;;
8636;SDS011;4356;49.068;8.658;2022-11-18T03:31:40;0.60;;;0.60;;
8636;SDS011;4356;49.068;8.658;2022-11-18T03:34:08;1.00;;;0.70;;
8636;SDS011;4356;49.068;8.658;2022-11-18T03:36:43;1.23;;;0.87;;
8636;SDS011;4356;49.068;8.658;2022-11-18T03:39:14;2.17;;;0.70;;
8636;SDS011;4356;49.068;8.658;2022-11-18T03:41:44;0.77;;;0.77;;
8636;SDS011;4356;49.068;8.658;2022-11-18T03:44:16;2.90;;;0.90;;
8636;SDS011;4356;49.068;8.658;2022-11-18T03:46:46;0.83;;;0.83;;
8636;SDS011;4356;49.068;8.658;2022-11-18T03:49:25;0.63;;;0.50;;
8636;SDS011;4356;49.068;8.658;2022-11-18T03:52:00;1.93;;;0.67;;
8636;SDS011;4356;49.068;8.658;2022-11-18T03:54:32;0.70;;;0.67;;
8636;SDS011;4356;49.068;8.658;2022-11-18T03:57:03;2.47;;;0.63;;
8636;SDS011;4356;49.068;8.658;2022-11-18T03:59:43;0.60;;;0.60;;
8636;SDS011;4356;49.068;8.658;2022-11-18T04:02:13;0.60;;;0.60;;
8636;SDS011;4356;49.068;8.658;2022-11-18T04:04:43;4.13;;;0.80;;
8636;SDS011;4356;49.068;8.658;2022-11-18T04:09:55;0.70;;;0.70;;
8636;SDS011;4356;49.068;8.658;2022-11-18T04:12:45;0.73;;;0.73;;
8636;SDS011;4356;49.068;8.658;2022-11-18T04:15:15;0.93;;;0.37;;
8636;SDS011;4356;49.068;8.658;2022-11-18T04:17:41;3.07;;;0.73;;
8636;SDS011;4356;49.068;8.658;2022-11-18T04:20:11;0.80;;;0.80;;
8636;SDS011;4356;49.068;8.658;2022-11-18T04:22:41;0.90;;;0.80;;
8636;SDS011;4356;49.068;8.658;2022-11-18T04:25:07;1.60;;;0.50;;
8636;SDS011;4356;49.068;8.658;2022-11-18T04:27:32;0.90;;;0.90;;
8636;SDS011;4356;49.068;8.658;2022-11-18T04:29:58;0.83;;;0.60;;
8636;SDS011;4356;49.068;8.658;2022-11-18T04:32:24;0.57;;;0.57;;
8636;SDS011;4356;49.068;8.658;2022-11-18T04:34:49;1.77;;;1.17;;
8636;SDS011;4356;49.068;8.658;2022-11-18T04:37:15;0.93;;;0.87;;
8636;SDS011;4356;49.068;8.658;2022-11-18T04:39:41;0.70;;;0.70;;
8636;SDS011;4356;49.068;8.658;2022-11-18T04:42:06;1.20;;;0.77;;
8636;SDS011;4356;49.068;8.658;2022-11-18T04:44:32;1.60;;;0.90;;
8636;SDS011;4356;49.068;8.658;2022-11-18T04:46:59;1.23;;;0.97;;
8636;SDS011;4356;49.068;8.658;2022-11-18T04:49:27;0.40;;;0.40;;
8636;SDS011;4356;49.068;8.658;2022-11-18T04:51:53;0.80;;;0.80;;
8636;SDS011;4356;49.068;8.658;2022-11-18T04:54:19;1.00;;;0.77;;
8636;SDS011;4356;49.068;8.658;2022-11-18T04:56:46;1.20;;;0.70;;
8636;SDS011;4356;49.068;8.658;2022-11-18T04:59:12;0.97;;;0.97;;
8636;SDS011;4356;49.068;8.658;2022-11-18T05:01:39;0.60;;;0.60;;
8636;SDS011;4356;49.068;8.658;2022-11-18T05:04:05;0.67;;;0.67;;
8636;SDS011;4356;49.068;8.658;2022-11-18T05:06:32;0.60;;;0.60;;
8636;SDS011;4356;49.068;8.658;2022-11-18T05:08:58;0.37;;;0.37;;
8636;SDS011;4356;49.068;8.658;2022-11-18T05:11:25;0.70;;;0.70;;
8636;SDS011;4356;49.068;8.658;2022-11-18T05:14:10;0.93;;;0.93;;
8636;SDS011;4356;49.068;8.658;2022-11-18T05:16:36;1.00;;;1.00;;
8636;SDS011;4356;49.068;8.658;2022-11-18T05:19:02;0.50;;;0.40;;
8636;SDS011;4356;49.068;8.658;2022-11-18T05:21:29;0.67;;;0.67;;
8636;SDS011;4356;49.068;8.658;2022-11-18T05:23:55;1.03;;;0.87;;
8636;SDS011;4356;49.068;8.658;2022-11-18T05:26:22;1.00;;;0.83;;
8636;SDS011;4356;49.068;8.658;2022-11-18T05:28:48;0.87;;;0.80;;
8636;SDS011;4356;49.068;8.658;2022-11-18T05:31:14;0.70;;;0.67;;
8636;SDS011;4356;49.068;8.658;2022-11-18T05:33:41;0.33;;;0.33;;
8636;SDS011;4356;49.068;8.658;2022-11-18T05:36:09;0.83;;;0.60;;
8636;SDS011;4356;49.068;8.658;2022-11-18T05:38:36;0.73;;;0.73;;
8636;SDS011;4356;49.068;8.658;2022-11-18T05:41:04;0.67;;;0.67;;
8636;SDS011;4356;49.068;8.658;2022-11-18T05:43:31;0.70;;;0.70;;
8636;SDS011;4356;49.068;8.658;2022-11-18T05:45:57;0.83;;;0.60;;
8636;SDS011;4356;49.068;8.658;2022-11-18T05:48:23;1.80;;;0.77;;
8636;SDS011;4356;49.068;8.658;2022-11-18T05:50:50;0.60;;;0.60;;
8636;SDS011;4356;49.068;8.658;2022-11-18T05:53:18;0.20;;;0.20;;
8636;SDS011;4356;49.068;8.658;2022-11-18T05:58:52;1.80;;;0.50;;
8636;SDS011;4356;49.068;8.658;2022-11-18T06:01:52;0.43;;;0.40;;
8636;SDS011;4356;49.068;8.658;2022-11-18T06:07:13;1.10;;;0.60;;
8636;SDS011;4356;49.068;8.658;2022-11-18T06:09:45;0.80;;;0.80;;
8636;SDS011;4356;49.068;8.658;2022-11-18T06:12:15;0.33;;;0.33;;
8636;SDS011;4356;49.068;8.658;2022-11-18T06:14:44;0.30;;;0.30;;
8636;SDS011;4356;49.068;8.658;2022-11-18T06:17:15;0.63;;;0.63;;
8636;SDS011;4356;49.068;8.658;2022-11-18T06:19:47;0.50;;;0.50;;
8636;SDS011;4356;49.068;8.658;2022-11-18T06:22:13;0.50;;;0.40;;
8636;SDS011;4356;49.068;8.658;2022-11-18T06:24:38;0.77;;;0.77;;
8636;SDS011;4356;49.068;8.658;2022-11-18T06:27:06;0.83;;;0.83;;
8636;SDS011;4356;49.068;8.658;2022-11-18T06:29:31;0.53;;;0.53;;
8636;SDS011;4356;49.068;8.658;2022-11-18T06:31:57;0.77;;;0.77;;
8636;SDS011;4356;49.068;8.658;2022-11-18T06:34:23;2.00;;;0.67;;
8636;SDS011;4356;49.068;8.658;2022-11-18T06:36:48;0.60;;;0.60;;
8636;SDS011;4356;49.068;8.658;2022-11-18T06:39:14;1.13;;;0.50;;
8636;SDS011;4356;49.068;8.658;2022-11-18T06:41:40;0.50;;;0.50;;
8636;SDS011;4356;49.068;8.658;2022-11-18T06:44:05;0.57;;;0.50;;
8636;SDS011;4356;49.068;8.658;2022-11-18T06:46:31;0.43;;;0.40;;
8636;SDS011;4356;49.068;8.658;2022-11-18T06:49:16;0.50;;;0.50;;
8636;SDS011;4356;49.068;8.658;2022-11-18T06:51:41;0.53;;;0.40;;
8636;SDS011;4356;49.068;8.658;2022-11-18T06:54:07;0.60;;;0.60;;
8636;SDS011;4356;49.068;8.658;2022-11-18T06:56:33;0.80;;;0.40;;
8636;SDS011;4356;49.068;8.658;2022-11-18T06:58:59;0.37;;;0.37;;
8636;SDS011;4356;49.068;8.658;2022-11-18T07:01:26;0.60;;;0.53;;
8636;SDS011;4356;49.068;8.658;2022-11-18T07:03:53;0.67;;;0.60;;
8636;SDS011;4356;49.068;8.658;2022-11-18T07:06:23;0.60;;;0.60;;
8636;SDS011;4356;49.068;8.658;2022-11-18T07:08:50;0.53;;;0.50;;
8636;SDS011;4356;49.068;8.658;2022-11-18T07:11:20;0.50;;;0.50;;
8636;SDS011;4356;49.068;8.658;2022-11-18T07:13:48;0.97;;;0.53;;
8636;SDS011;4356;49.068;8.658;2022-11-18T07:16:15;1.43;;;0.50;;
8636;SDS011;4356;49.068;8.658;2022-11-18T07:18:43;0.50;;;0.50;;
8636;SDS011;4356;49.068;8.658;2022-11-18T07:21:12;0.90;;;0.50;;
8636;SDS011;4356;49.068;8.658;2022-11-18T07:23:39;0.43;;;0.43;;
8636;SDS011;4356;49.068;8.658;2022-11-18T07:26:05;0.73;;;0.73;;
8636;SDS011;4356;49.068;8.658;2022-11-18T07:28:32;0.37;;;0.37;;
8636;SDS011;4356;49.068;8.658;2022-11-18T07:31:02;0.53;;;0.53;;
8636;SDS011;4356;49.068;8.658;2022-11-18T07:33:29;1.97;;;0.40;;
8636;SDS011;4356;49.068;8.658;2022-11-18T07:35:58;0.60;;;0.60;;
8636;SDS011;4356;49.068;8.658;2022-11-18T07:38:25;4.83;;;0.80;;
8636;SDS011;4356;49.068;8.658;2022-11-18T07:40:51;0.83;;;0.83;;
8636;SDS011;4356;49.068;8.658;2022-11-18T07:43:17;0.40;;;0.40;;
8636;SDS011;4356;49.068;8.658;2022-11-18T07:45:42;1.03;;;0.50;;
8636;SDS011;4356;49.068;8.658;2022-11-18T07:48:08;0.50;;;0.50;;
8636;SDS011;4356;49.068;8.658;2022-11-18T07:50:34;0.60;;;0.60;;
8636;SDS011;4356;49.068;8.658;2022-11-18T07:52:59;1.13;;;0.57;;
8636;SDS011;4356;49.068;8.658;2022-11-18T07:55:25;1.00;;;0.90;;
8636;SDS011;4356;49.068;8.658;2022-11-18T07:57:50;1.37;;;0.80;;
8636;SDS011;4356;49.068;8.658;2022-11-18T08:00:16;0.87;;;0.87;;
8636;SDS011;4356;49.068;8.658;2022-11-18T08:02:42;1.40;;;0.90;;
8636;SDS011;4356;49.068;8.658;2022-11-18T08:05:08;0.80;;;0.80;;
8636;SDS011;4356;49.068;8.658;2022-11-18T08:07:34;1.80;;;0.93;;
8636;SDS011;4356;49.068;8.658;2022-11-18T08:10:00;0.87;;;0.87;;
8636;SDS011;4356;49.068;8.658;2022-11-18T08:12:27;1.03;;;1.03;;
8636;SDS011;4356;49.068;8.658;2022-11-18T08:14:55;0.83;;;0.83;;
8636;SDS011;4356;49.068;8.658;2022-11-18T08:17:21;0.77;;;0.77;;
8636;SDS011;4356;49.068;8.658;2022-11-18T08:19:47;1.83;;;1.17;;
8636;SDS011;4356;49.068;8.658;2022-11-18T08:22:12;0.97;;;0.97;;
8636;SDS011;4356;49.068;8.658;2022-11-18T08:24:41;0.60;;;0.60;;
8636;SDS011;4356;49.068;8.658;2022-11-18T08:27:06;1.00;;;1.00;;
8636;SDS011;4356;49.068;8.658;2022-11-18T08:29:32;0.80;;;0.80;;
8636;SDS011;4356;49.068;8.658;2022-11-18T08:31:57;0.57;;;0.57;;
8636;SDS011;4356;49.068;8.658;2022-11-18T08:34:23;0.60;;;0.60;;
8636;SDS011;4356;49.068;8.658;2022-11-18T08:36:49;1.00;;;0.87;;
8636;SDS011;4356;49.068;8.658;2022-11-18T08:39:14;0.73;;;0.73;;
8636;SDS011;4356;49.068;8.658;2022-11-18T08:41:41;5.70;;;1.17;;
8636;SDS011;4356;49.068;8.658;2022-11-18T08:44:09;0.70;;;0.70;;
8636;SDS011;4356;49.068;8.658;2022-11-18T08:46:37;0.60;;;0.60;;
8636;SDS011;4356;49.068;8.658;2022-11-18T08:49:03;1.37;;;0.60;;
8636;SDS011;4356;49.068;8.658;2022-11-18T08:51:29;0.83;;;0.83;;
8636;SDS011;4356;49.068;8.658;2022-11-18T08:53:55;0.63;;;0.60;;
8636;SDS011;4356;49.068;8.658;2022-11-18T08:56:21;1.30;;;0.50;;
8636;SDS011;4356;49.068;8.658;2022-11-18T08:58:49;0.90;;;0.90;;
8636;SDS011;4356;49.068;8.658;2022-11-18T09:01:15;1.00;;;1.00;;
8636;SDS011;4356;49.068;8.658;2022-11-18T09:03:41;1.33;;;0.87;;
8636;SDS011;4356;49.068;8.658;2022-11-18T09:06:07;0.57;;;0.57;;
8636;SDS011;4356;49.068;8.658;2022-11-18T09:08:38;0.90;;;0.90;;
8636;SDS011;4356;49.068;8.658;2022-11-18T09:11:08;0.83;;;0.83;;
8636;SDS011;4356;49.068;8.658;2022-11-18T09:13:35;0.77;;;0.67;;
8636;SDS011;4356;49.068;8.658;2022-11-18T09:16:02;0.83;;;0.73;;
8636;SDS011;4356;49.068;8.658;2022-11-18T09:18:28;1.03;;;0.80;;
8636;SDS011;4356;49.068;8.658;2022-11-18T09:20:55;1.03;;;0.93;;
8636;SDS011;4356;49.068;8.658;2022-11-18T09:23:22;1.17;;;0.80;;
8636;SDS011;4356;49.068;8.658;2022-11-18T09:25:48;1.23;;;1.23;;
8636;SDS011;4356;49.068;8.658;2022-11-18T09:28:20;0.90;;;0.90;;
8636;SDS011;4356;49.068;8.658;2022-11-18T09:30:46;0.90;;;0.90;;
8636;SDS011;4356;49.068;8.658;2022-11-18T09:33:12;0.93;;;0.93;;
8636;SDS011;4356;49.068;8.658;2022-11-18T09:35:41;1.33;;;0.90;;
8636;SDS011;4356;49.068;8.658;2022-11-18T09:38:11;1.40;;;1.30;;
8636;SDS011;4356;49.068;8.658;2022-11-18T09:40:41;0.93;;;0.93;;
8636;SDS011;4356;49.068;8.658;2022-11-18T09:43:25;1.10;;;1.10;;
8636;SDS011;4356;49.068;8.658;2022-11-18T09:46:15;2.00;;;0.90;;
8636;SDS011;4356;49.068;8.658;2022-11-18T09:48:50;1.60;;;1.23;;
8636;SDS011;4356;49.068;8.658;2022-11-18T09:51:45;0.90;;;0.90;;
8636;SDS011;4356;49.068;8.658;2022-11-18T09:54:26;1.33;;;1.33;;
8636;SDS011;4356;49.068;8.658;2022-11-18T09:56:55;2.00;;;1.33;;
8636;SDS011;4356;49.068;8.658;2022-11-18T09:59:23;1.87;;;0.60;;
8636;SDS011;4356;49.068;8.658;2022-11-18T10:01:52;1.00;;;0.87;;
8636;SDS011;4356;49.068;8.658;2022-11-18T10:04:21;0.93;;;0.90;;
8636;SDS011;4356;49.068;8.658;2022-11-18T10:06:48;1.00;;;0.87;;
8636;SDS011;4356;49.068;8.658;2022-11-18T10:09:20;1.10;;;1.10;;
8636;SDS011;4356;49.068;8.658;2022-11-18T10:15:03;1.00;;;1.00;;
8636;SDS011;4356;49.068;8.658;2022-11-18T10:25:59;2.87;;;1.10;;
8636;SDS011;4356;49.068;8.658;2022-11-18T10:28:28;1.70;;;1.57;;
8636;SDS011;4356;49.068;8.658;2022-11-18T10:31:05;1.43;;;1.33;;
8636;SDS011;4356;49.068;8.658;2022-11-18T10:33:32;2.33;;;1.83;;
8636;SDS011;4356;49.068;8.658;2022-11-18T10:38:42;3.40;;;2.43;;
8636;SDS011;4356;49.068;8.658;2022-11-18T10:41:10;2.47;;;2.27;;
8636;SDS011;4356;49.068;8.658;2022-11-18T10:43:46;1.83;;;1.73;;
8636;SDS011;4356;49.068;8.658;2022-11-18T10:46:15;1.37;;;1.30;;
8636;SDS011;4356;49.068;8.658;2022-11-18T10:51:37;1.77;;;1.67;;
8636;SDS011;4356;49.068;8.658;2022-11-18T10:54:28;2.63;;;1.53;;
8636;SDS011;4356;49.068;8.658;2022-11-18T11:02:39;1.27;;;1.17;;
8636;SDS011;4356;49.068;8.658;2022-11-18T11:05:15;1.43;;;1.33;;
8636;SDS011;4356;49.068;8.658;2022-11-18T11:08:32;1.50;;;1.40;;
8636;SDS011;4356;49.068;8.658;2022-11-18T11:10:53;1.97;;;1.83;;
8636;SDS011;4356;49.068;8.658;2022-11-18T11:13:20;0.97;;;0.97;;
8636;SDS011;4356;49.068;8.658;2022-11-18T11:15:48;1.60;;;1.13;;
8636;SDS011;4356;49.068;8.658;2022-11-18T11:18:21;1.20;;;1.20;;
8636;SDS011;4356;49.068;8.658;2022-11-18T11:21:15;0.97;;;0.97;;
8636;SDS011;4356;49.068;8.658;2022-11-18T11:23:49;1.33;;;1.10;;
8636;SDS011;4356;49.068;8.658;2022-11-18T11:26:35;1.80;;;1.50;;
8636;SDS011;4356;49.068;8.658;2022-11-18T11:32:09;1.40;;;1.30;;
8636;SDS011;4356;49.068;8.658;2022-11-18T11:42:27;1.30;;;1.30;;
8636;SDS011;4356;49.068;8.658;2022-11-18T11:45:20;1.83;;;1.10;;
8636;SDS011;4356;49.068;8.658;2022-11-18T11:50:53;1.03;;;1.03;;
8636;SDS011;4356;49.068;8.658;2022-11-18T12:04:32;1.53;;;1.43;;
8636;SDS011;4356;49.068;8.658;2022-11-18T12:07:03;1.67;;;1.27;;
8636;SDS011;4356;49.068;8.658;2022-11-18T12:10:22;1.20;;;1.10;;
8636;SDS011;4356;49.068;8.658;2022-11-18T12:12:52;1.10;;;1.10;;
8636;SDS011;4356;49.068;8.658;2022-11-18T12:18:32;2.30;;;1.13;;
8636;SDS011;4356;49.068;8.658;2022-11-18T12:21:02;2.33;;;1.40;;
8636;SDS011;4356;49.068;8.658;2022-11-18T12:23:28;5.10;;;1.70;;
8636;SDS011;4356;49.068;8.658;2022-11-18T12:26:03;1.50;;;1.20;;
8636;SDS011;4356;49.068;8.658;2022-11-18T12:28:33;2.87;;;1.67;;
8636;SDS011;4356;49.068;8.658;2022-11-18T12:33:52;1.07;;;1.03;;
8636;SDS011;4356;49.068;8.658;2022-11-18T12:36:23;1.67;;;1.47;;
8636;SDS011;4356;49.068;8.658;2022-11-18T12:38:50;4.97;;;1.90;;
8636;SDS011;4356;49.068;8.658;2022-11-18T12:42:03;3.20;;;2.37;;
8636;SDS011;4356;49.068;8.658;2022-11-18T12:44:24;1.10;;;1.00;;
8636;SDS011;4356;49.068;8.658;2022-11-18T12:47:01;4.00;;;1.63;;
8636;SDS011;4356;49.068;8.658;2022-11-18T12:51:57;2.30;;;1.67;;
8636;SDS011;4356;49.068;8.658;2022-11-18T12:54:37;3.30;;;1.50;;
8636;SDS011;4356;49.068;8.658;2022-11-18T12:57:17;2.13;;;1.50;;
8636;SDS011;4356;49.068;8.658;2022-11-18T12:59:45;4.70;;;1.50;;
8636;SDS011;4356;49.068;8.658;2022-11-18T13:02:21;1.10;;;1.00;;
8636;SDS011;4356;49.068;8.658;2022-11-18T13:05:08;2.87;;;1.67;;
8636;SDS011;4356;49.068;8.658;2022-11-18T13:07:48;3.13;;;1.77;;
8636;SDS011;4356;49.068;8.658;2022-11-18T13:10:38;1.57;;;1.47;;
8636;SDS011;4356;49.068;8.658;2022-11-18T13:13:18;2.90;;;1.60;;
8636;SDS011;4356;49.068;8.658;2022-11-18T13:15:56;1.87;;;1.77;;
8636;SDS011;4356;49.068;8.658;2022-11-18T13:18:56;1.57;;;1.47;;
8636;SDS011;4356;49.068;8.658;2022-11-18T13:21:23;4.10;;;1.73;;
8636;SDS011;4356;49.068;8.658;2022-11-18T13:24:10;3.43;;;1.63;;
8636;SDS011;4356;49.068;8.658;2022-11-18T13:26:41;5.43;;;1.63;;
8636;SDS011;4356;49.068;8.658;2022-11-18T13:32:14;2.20;;;1.37;;
8636;SDS011;4356;49.068;8.658;2022-11-18T13:34:53;5.37;;;1.60;;
8636;SDS011;4356;49.068;8.658;2022-11-18T13:37:28;1.43;;;1.10;;
8636;SDS011;4356;49.068;8.658;2022-11-18T13:39:56;5.13;;;1.33;;
8636;SDS011;4356;49.068;8.658;2022-11-18T13:42:23;1.70;;;1.30;;
8636;SDS011;4356;49.068;8.658;2022-11-18T13:44:55;2.57;;;1.50;;
8636;SDS011;4356;49.068;8.658;2022-11-18T13:50:02;1.90;;;1.23;;
8636;SDS011;4356;49.068;8.658;2022-11-18T13:52:36;1.90;;;1.50;;
8636;SDS011;4356;49.068;8.658;2022-11-18T13:55:08;1.40;;;1.23;;
8636;SDS011;4356;49.068;8.658;2022-11-18T13:57:40;2.20;;;0.90;;
8636;SDS011;4356;49.068;8.658;2022-11-18T14:00:18;1.50;;;1.40;;
8636;SDS011;4356;49.068;8.658;2022-11-18T14:02:52;2.00;;;1.67;;
8636;SDS011;4356;49.068;8.658;2022-11-18T14:05:28;1.50;;;1.20;;
8636;SDS011;4356;49.068;8.658;2022-11-18T14:07:54;6.10;;;1.63;;
8636;SDS011;4356;49.068;8.658;2022-11-18T14:10:28;1.53;;;1.40;;
8636;SDS011;4356;49.068;8.658;2022-11-18T14:13:26;2.37;;;1.23;;
8636;SDS011;4356;49.068;8.658;2022-11-18T14:15:56;1.47;;;1.07;;
8636;SDS011;4356;49.068;8.658;2022-11-18T14:18:35;1.50;;;1.40;;
8636;SDS011;4356;49.068;8.658;2022-11-18T14:21:02;1.10;;;1.00;;
8636;SDS011;4356;49.068;8.658;2022-11-18T14:23:33;1.87;;;1.47;;
8636;SDS011;4356;49.068;8.658;2022-11-18T14:26:01;1.90;;;1.27;;
8636;SDS011;4356;49.068;8.658;2022-11-18T14:28:29;1.63;;;1.40;;
8636;SDS011;4356;49.068;8.658;2022-11-18T14:36:45;2.67;;;1.57;;
8636;SDS011;4356;49.068;8.658;2022-11-18T14:39:18;1.13;;;1.03;;
8636;SDS011;4356;49.068;8.658;2022-11-18T14:41:45;1.93;;;0.97;;
8636;SDS011;4356;49.068;8.658;2022-11-18T14:44:11;2.70;;;1.20;;
8636;SDS011;4356;49.068;8.658;2022-11-18T14:46:37;1.43;;;1.30;;
8636;SDS011;4356;49.068;8.658;2022-11-18T14:49:05;1.43;;;1.33;;
8636;SDS011;4356;49.068;8.658;2022-11-18T14:51:37;1.20;;;1.20;;
8636;SDS011;4356;49.068;8.658;2022-11-18T14:54:04;1.97;;;1.63;;
8636;SDS011;4356;49.068;8.658;2022-11-18T14:56:29;1.67;;;1.07;;
8636;SDS011;4356;49.068;8.658;2022-11-18T14:58:56;2.23;;;1.20;;
8636;SDS011;4356;49.068;8.658;2022-11-18T15:01:22;2.93;;;1.40;;
8636;SDS011;4356;49.068;8.658;2022-11-18T15:03:52;3.50;;;1.40;;
8636;SDS011;4356;49.068;8.658;2022-11-18T15:06:19;2.43;;;1.63;;
8636;SDS011;4356;49.068;8.658;2022-11-18T15:08:46;1.93;;;1.27;;
8636;SDS011;4356;49.068;8.658;2022-11-18T15:11:14;1.33;;;1.20;;
8636;SDS011;4356;49.068;8.658;2022-11-18T15:13:40;1.93;;;1.20;;
8636;SDS011;4356;49.068;8.658;2022-11-18T15:16:11;3.20;;;1.40;;
8636;SDS011;4356;49.068;8.658;2022-11-18T15:18:40;1.40;;;1.30;;
8636;SDS011;4356;49.068;8.658;2022-11-18T15:21:06;1.60;;;1.23;;
8636;SDS011;4356;49.068;8.658;2022-11-18T15:23:32;1.53;;;1.40;;
8636;SDS011;4356;49.068;8.658;2022-11-18T15:25:58;3.03;;;1.60;;
8636;SDS011;4356;49.068;8.658;2022-11-18T15:28:23;1.70;;;1.37;;
8636;SDS011;4356;49.068;8.658;2022-11-18T15:30:49;4.53;;;1.57;;
8636;SDS011;4356;49.068;8.658;2022-11-18T15:33:14;3.13;;;1.70;;
8636;SDS011;4356;49.068;8.658;2022-11-18T15:35:40;1.87;;;1.30;;
8636;SDS011;4356;49.068;8.658;2022-11-18T15:38:06;1.57;;;1.20;;
8636;SDS011;4356;49.068;8.658;2022-11-18T15:40:34;5.37;;;1.30;;
8636;SDS011;4356;49.068;8.658;2022-11-18T15:43:00;2.00;;;1.00;;
8636;SDS011;4356;49.068;8.658;2022-11-18T15:45:26;1.87;;;1.30;;
8636;SDS011;4356;49.068;8.658;2022-11-18T15:47:52;1.80;;;1.60;;
8636;SDS011;4356;49.068;8.658;2022-11-18T15:50:17;1.30;;;1.20;;
8636;SDS011;4356;49.068;8.658;2022-11-18T15:52:43;3.60;;;1.70;;
8636;SDS011;4356;49.068;8.658;2022-11-18T15:55:08;2.10;;;1.57;;
8636;SDS011;4356;49.068;8.658;2022-11-18T15:57:34;2.23;;;1.50;;
8636;SDS011;4356;49.068;8.658;2022-11-18T16:00:00;3.10;;;1.53;;
8636;SDS011;4356;49.068;8.658;2022-11-18T16:02:25;1.50;;;1.40;;
8636;SDS011;4356;49.068;8.658;2022-11-18T16:04:51;3.30;;;1.57;;
8636;SDS011;4356;49.068;8.658;2022-11-18T16:07:16;2.17;;;1.60;;
8636;SDS011;4356;49.068;8.658;2022-11-18T16:09:42;2.93;;;1.63;;
8636;SDS011;4356;49.068;8.658;2022-11-18T16:12:26;1.67;;;1.57;;
8636;SDS011;4356;49.068;8.658;2022-11-18T16:15:10;3.27;;;1.27;;
8636;SDS011;4356;49.068;8.658;2022-11-18T16:17:54;2.03;;;1.50;;
8636;SDS011;4356;49.068;8.658;2022-11-18T16:20:20;3.43;;;1.47;;
8636;SDS011;4356;49.068;8.658;2022-11-18T16:22:45;2.57;;;1.50;;
8636;SDS011;4356;49.068;8.658;2022-11-18T16:25:12;2.73;;;1.60;;
8636;SDS011;4356;49.068;8.658;2022-11-18T16:27:38;1.33;;;1.23;;
8636;SDS011;4356;49.068;8.658;2022-11-18T16:30:03;3.13;;;1.43;;
8636;SDS011;4356;49.068;8.658;2022-11-18T16:32:29;1.77;;;1.27;;
8636;SDS011;4356;49.068;8.658;2022-11-18T16:34:55;1.43;;;1.33;;
8636;SDS011;4356;49.068;8.658;2022-11-18T16:37:22;1.83;;;1.73;;
8636;SDS011;4356;49.068;8.658;2022-11-18T16:39:48;1.97;;;1.73;;
8636;SDS011;4356;49.068;8.658;2022-11-18T16:42:13;2.33;;;1.47;;
8636;SDS011;4356;49.068;8.658;2022-11-18T16:44:39;3.90;;;1.67;;
8636;SDS011;4356;49.068;8.658;2022-11-18T16:47:05;3.00;;;1.40;;
8636;SDS011;4356;49.068;8.658;2022-11-18T16:49:32;4.93;;;1.90;;
8636;SDS011;4356;49.068;8.658;2022-11-18T16:51:58;2.73;;;1.80;;
8636;SDS011;4356;49.068;8.658;2022-11-18T16:54:27;1.57;;;1.47;;
8636;SDS011;4356;49.068;8.658;2022-11-18T16:56:55;2.30;;;1.63;;
8636;SDS011;4356;49.068;8.658;2022-11-18T16:59:26;2.37;;;1.50;;
8636;SDS011;4356;49.068;8.658;2022-11-18T17:01:53;1.80;;;1.43;;
8636;SDS011;4356;49.068;8.658;2022-11-18T17:04:20;1.67;;;1.57;;
8636;SDS011;4356;49.068;8.658;2022-11-18T17:06:48;2.83;;;1.57;;
8636;SDS011;4356;49.068;8.658;2022-11-18T17:09:15;2.13;;;1.67;;
8636;SDS011;4356;49.068;8.658;2022-11-18T17:11:42;2.60;;;1.90;;
8636;SDS011;4356;49.068;8.658;2022-11-18T17:14:08;2.77;;;1.83;;
8636;SDS011;4356;49.068;8.658;2022-11-18T17:16:34;2.20;;;2.00;;
8636;SDS011;4356;49.068;8.658;2022-11-18T17:19:00;1.80;;;1.50;;
8636;SDS011;4356;49.068;8.658;2022-11-18T17:21:26;2.30;;;1.80;;
8636;SDS011;4356;49.068;8.658;2022-11-18T17:23:53;1.60;;;1.50;;